sensor_id;sensor_type;location;lat;lon;timestamp;pressure;altitude;pressure_sealevel;temperature;humidity
13732;BME280;6937;56.096;12.664;2023-04-19T00:00:46;103291.25;;;7.47;100.00
13732;BME280;6937;56.096;12.664;2023-04-19T00:03:12;103289.38;;;7.52;100.00
13732;BME280;6937;56.096;12.664;2023-04-19T00:05:38;103282.22;;;7.54;100.00
13732;BME280;6937;56.096;12.664;2023-04-19T00:08:06;103280.50;;;7.53;100.00
13732;BME280;6937;56.096;12.664;2023-04-19T00:10:32;103265.50;;;7.49;100.00
13732;BME280;6937;56.096;12.664;2023-04-19T00:12:57;103276.06;;;7.53;100.00
13732;BME280;6937;56.096;12.664;2023-04-19T00:15:23;103265.34;;;7.56;100.00
13732;BME280;6937;56.096;12.664;2023-04-19T00:17:48;103265.34;;;7.56;100.00
13732;BME280;6937;56.096;12.664;2023-04-19T00:20:13;103266.25;;;7.55;100.00
13732;BME280;6937;56.096;12.664;2023-04-19T00:22:39;103267.94;;;7.59;100.00
13732;BME280;6937;56.096;12.664;2023-04-19T00:25:04;103272.44;;;7.56;100.00
13732;BME280;6937;56.096;12.664;2023-04-19T00:27:30;103261.00;;;7.51;100.00
13732;BME280;6937;56.096;12.664;2023-04-19T00:29:56;103270.03;;;7.44;100.00
13732;BME280;6937;56.096;12.664;2023-04-19T00:32:22;103265.75;;;7.35;100.00
13732;BME280;6937;56.096;12.664;2023-04-19T00:34:47;103265.00;;;7.28;100.00
13732;BME280;6937;56.096;12.664;2023-04-19T00:37:13;103263.41;;;7.18;100.00
13732;BME280;6937;56.096;12.664;2023-04-19T00:39:38;103260.81;;;7.15;100.00
13732;BME280;6937;56.096;12.664;2023-04-19T00:42:04;103268.88;;;7.09;100.00
13732;BME280;6937;56.096;12.664;2023-04-19T00:44:29;103256.66;;;7.01;100.00
13732;BME280;6937;56.096;12.664;2023-04-19T00:46:55;103262.94;;;6.97;100.00
13732;BME280;6937;56.096;12.664;2023-04-19T00:49:22;103268.31;;;6.91;100.00
13732;BME280;6937;56.096;12.664;2023-04-19T00:51:49;103259.59;;;6.82;100.00
13732;BME280;6937;56.096;12.664;2023-04-19T00:54:15;103255.28;;;6.77;100.00
13732;BME280;6937;56.096;12.664;2023-04-19T00:56:40;103246.47;;;6.73;100.00
13732;BME280;6937;56.096;12.664;2023-04-19T00:59:06;103249.13;;;6.73;100.00
13732;BME280;6937;56.096;12.664;2023-04-19T01:01:32;103251.81;;;6.72;100.00
13732;BME280;6937;56.096;12.664;2023-04-19T01:03:59;103250.03;;;6.72;100.00
13732;BME280;6937;56.096;12.664;2023-04-19T01:06:26;103245.59;;;6.73;100.00
13732;BME280;6937;56.096;12.664;2023-04-19T01:08:52;103243.91;;;6.67;100.00
13732;BME280;6937;56.096;12.664;2023-04-19T01:11:18;103238.72;;;6.61;100.00
13732;BME280;6937;56.096;12.664;2023-04-19T01:13:43;103234.34;;;6.59;100.00
13732;BME280;6937;56.096;12.664;2023-04-19T01:16:09;103241.34;;;6.63;100.00
13732;BME280;6937;56.096;12.664;2023-04-19T01:18:34;103234.25;;;6.63;100.00
13732;BME280;6937;56.096;12.664;2023-04-19T01:21:02;103223.66;;;6.62;100.00
13732;BME280;6937;56.096;12.664;2023-04-19T01:23:27;103222.75;;;6.61;100.00
13732;BME280;6937;56.096;12.664;2023-04-19T01:25:53;103222.84;;;6.57;100.00
13732;BME280;6937;56.096;12.664;2023-04-19T01:28:18;103221.13;;;6.53;100.00
13732;BME280;6937;56.096;12.664;2023-04-19T01:30:43;103223.88;;;6.48;100.00
13732;BME280;6937;56.096;12.664;2023-04-19T01:33:09;103216.81;;;6.46;100.00
13732;BME280;6937;56.096;12.664;2023-04-19T01:35:34;103219.53;;;6.43;100.00
13732;BME280;6937;56.096;12.664;2023-04-19T01:38:00;103212.50;;;6.40;100.00
13732;BME280;6937;56.096;12.664;2023-04-19T01:40:26;103218.72;;;6.38;100.00
13732;BME280;6937;56.096;12.664;2023-04-19T01:42:52;103213.47;;;6.35;100.00
13732;BME280;6937;56.096;12.664;2023-04-19T01:45:17;103208.19;;;6.31;100.00
13732;BME280;6937;56.096;12.664;2023-04-19T01:47:42;103208.22;;;6.30;100.00
13732;BME280;6937;56.096;12.664;2023-04-19T01:50:08;103210.09;;;6.23;100.00
13732;BME280;6937;56.096;12.664;2023-04-19T01:52:33;103205.66;;;6.22;100.00
13732;BME280;6937;56.096;12.664;2023-04-19T01:54:59;103199.53;;;6.19;100.00
13732;BME280;6937;56.096;12.664;2023-04-19T01:57:24;103203.13;;;6.16;100.00
13732;BME280;6937;56.096;12.664;2023-04-19T01:59:51;103197.81;;;6.16;100.00
13732;BME280;6937;56.096;12.664;2023-04-19T02:02:16;103203.13;;;6.15;100.00
13732;BME280;6937;56.096;12.664;2023-04-19T02:04:41;103193.44;;;6.14;100.00
13732;BME280;6937;56.096;12.664;2023-04-19T02:07:08;103185.44;;;6.15;100.00
13732;BME280;6937;56.096;12.664;2023-04-19T02:09:34;103189.00;;;6.13;100.00
13732;BME280;6937;56.096;12.664;2023-04-19T02:12:00;103175.84;;;6.07;100.00
13732;BME280;6937;56.096;12.664;2023-04-19T02:14:26;103179.28;;;6.12;100.00
13732;BME280;6937;56.096;12.664;2023-04-19T02:16:51;103185.47;;;6.12;100.00
13732;BME280;6937;56.096;12.664;2023-04-19T02:19:16;103173.09;;;6.13;100.00
13732;BME280;6937;56.096;12.664;2023-04-19T02:21:42;103183.69;;;6.14;100.00
13732;BME280;6937;56.096;12.664;2023-04-19T02:24:07;103170.31;;;6.22;100.00
13732;BME280;6937;56.096;12.664;2023-04-19T02:26:32;103172.03;;;6.24;100.00
13732;BME280;6937;56.096;12.664;2023-04-19T02:28:58;103174.59;;;6.29;100.00
13732;BME280;6937;56.096;12.664;2023-04-19T02:31:24;103164.00;;;6.27;100.00
13732;BME280;6937;56.096;12.664;2023-04-19T02:33:49;103164.00;;;6.27;100.00
13732;BME280;6937;56.096;12.664;2023-04-19T02:36:14;103157.75;;;6.30;100.00
13732;BME280;6937;56.096;12.664;2023-04-19T02:38:40;103162.16;;;6.32;100.00
13732;BME280;6937;56.096;12.664;2023-04-19T02:41:05;103159.50;;;6.31;100.00
13732;BME280;6937;56.096;12.664;2023-04-19T02:43:31;103164.00;;;6.27;100.00
13732;BME280;6937;56.096;12.664;2023-04-19T02:45:56;103148.09;;;6.26;100.00
13732;BME280;6937;56.096;12.664;2023-04-19T02:48:21;103146.34;;;6.25;100.00
13732;BME280;6937;56.096;12.664;2023-04-19T02:50:47;103141.97;;;6.21;100.00
13732;BME280;6937;56.096;12.664;2023-04-19T02:53:12;103143.81;;;6.16;100.00
13732;BME280;6937;56.096;12.664;2023-04-19T02:55:37;103135.91;;;6.11;100.00
13732;BME280;6937;56.096;12.664;2023-04-19T02:58:03;103133.38;;;6.07;100.00
13732;BME280;6937;56.096;12.664;2023-04-19T03:00:28;103135.22;;;6.02;100.00
13732;BME280;6937;56.096;12.664;2023-04-19T03:02:55;103126.41;;;6.00;100.00
13732;BME280;6937;56.096;12.664;2023-04-19T03:05:21;103122.94;;;5.93;100.00
13732;BME280;6937;56.096;12.664;2023-04-19T03:07:46;103118.56;;;5.91;100.00
13732;BME280;6937;56.096;12.664;2023-04-19T03:10:12;103122.13;;;5.90;100.00
13732;BME280;6937;56.096;12.664;2023-04-19T03:12:37;103116.84;;;5.85;100.00
13732;BME280;6937;56.096;12.664;2023-04-19T03:15:03;103108.94;;;5.82;100.00
13732;BME280;6937;56.096;12.664;2023-04-19T03:17:28;103111.59;;;5.82;100.00
13732;BME280;6937;56.096;12.664;2023-04-19T03:19:54;103108.09;;;5.80;100.00
13732;BME280;6937;56.096;12.664;2023-04-19T03:22:20;103109.88;;;5.79;100.00
13732;BME280;6937;56.096;12.664;2023-04-19T03:24:46;103100.19;;;5.77;100.00
13732;BME280;6937;56.096;12.664;2023-04-19T03:27:11;103092.25;;;5.74;100.00
13732;BME280;6937;56.096;12.664;2023-04-19T03:29:36;103086.09;;;5.70;100.00
13732;BME280;6937;56.096;12.664;2023-04-19T03:32:02;103087.94;;;5.67;100.00
13732;BME280;6937;56.096;12.664;2023-04-19T03:34:27;103087.03;;;5.69;100.00
13732;BME280;6937;56.096;12.664;2023-04-19T03:36:53;103076.44;;;5.68;100.00
13732;BME280;6937;56.096;12.664;2023-04-19T03:39:19;103079.09;;;5.66;100.00
13732;BME280;6937;56.096;12.664;2023-04-19T03:41:44;103075.66;;;5.61;100.00
13732;BME280;6937;56.096;12.664;2023-04-19T03:44:09;103070.41;;;5.57;100.00
13732;BME280;6937;56.096;12.664;2023-04-19T03:46:35;103073.09;;;5.54;100.00
13732;BME280;6937;56.096;12.664;2023-04-19T03:49:00;103074.88;;;5.52;100.00
13732;BME280;6937;56.096;12.664;2023-04-19T03:51:25;103071.41;;;5.50;100.00
13732;BME280;6937;56.096;12.664;2023-04-19T03:53:51;103065.25;;;5.46;100.00
13732;BME280;6937;56.096;12.664;2023-04-19T03:56:16;103062.66;;;5.43;100.00
13732;BME280;6937;56.096;12.664;2023-04-19T03:58:42;103062.72;;;5.37;100.00
13732;BME280;6937;56.096;12.664;2023-04-19T04:01:07;103063.72;;;5.30;100.00
13732;BME280;6937;56.096;12.664;2023-04-19T04:03:33;103051.44;;;5.21;100.00
13732;BME280;6937;56.096;12.664;2023-04-19T04:05:59;103049.78;;;5.16;100.00
13732;BME280;6937;56.096;12.664;2023-04-19T04:08:24;103049.81;;;5.11;100.00
13732;BME280;6937;56.096;12.664;2023-04-19T04:10:49;103047.22;;;5.07;100.00
13732;BME280;6937;56.096;12.664;2023-04-19T04:13:15;103051.59;;;5.11;100.00
13732;BME280;6937;56.096;12.664;2023-04-19T04:15:40;103047.22;;;5.10;100.00
13732;BME280;6937;56.096;12.664;2023-04-19T04:18:05;103041.88;;;5.11;100.00
13732;BME280;6937;56.096;12.664;2023-04-19T04:20:31;103036.56;;;5.11;100.00
13732;BME280;6937;56.096;12.664;2023-04-19T04:22:56;103048.91;;;5.15;100.00
13732;BME280;6937;56.096;12.664;2023-04-19T04:25:22;103033.88;;;5.14;100.00
13732;BME280;6937;56.096;12.664;2023-04-19T04:27:50;103042.75;;;5.12;100.00
13732;BME280;6937;56.096;12.664;2023-04-19T04:30:15;103044.53;;;5.13;100.00
13732;BME280;6937;56.096;12.664;2023-04-19T04:32:41;103042.72;;;5.15;100.00
13732;BME280;6937;56.096;12.664;2023-04-19T04:35:08;103045.31;;;5.18;100.00
13732;BME280;6937;56.096;12.664;2023-04-19T04:37:34;103039.94;;;5.24;100.00
13732;BME280;6937;56.096;12.664;2023-04-19T04:40:00;103040.84;;;5.24;100.00
13732;BME280;6937;56.096;12.664;2023-04-19T04:42:26;103040.75;;;5.29;100.00
13732;BME280;6937;56.096;12.664;2023-04-19T04:44:52;103043.38;;;5.32;100.00
13732;BME280;6937;56.096;12.664;2023-04-19T04:47:17;103052.16;;;5.35;100.00
13732;BME280;6937;56.096;12.664;2023-04-19T04:49:43;103046.81;;;5.39;100.00
13732;BME280;6937;56.096;12.664;2023-04-19T04:52:08;103046.75;;;5.40;100.00
13732;BME280;6937;56.096;12.664;2023-04-19T04:54:33;103042.34;;;5.42;100.00
13732;BME280;6937;56.096;12.664;2023-04-19T04:56:59;103044.94;;;5.47;100.00
13732;BME280;6937;56.096;12.664;2023-04-19T04:59:25;103045.72;;;5.52;100.00
13732;BME280;6937;56.096;12.664;2023-04-19T05:01:51;103048.34;;;5.55;100.00
13732;BME280;6937;56.096;12.664;2023-04-19T05:04:17;103038.53;;;5.60;100.00
13732;BME280;6937;56.096;12.664;2023-04-19T05:06:43;103041.09;;;5.64;100.00
13732;BME280;6937;56.096;12.664;2023-04-19T05:09:09;103038.38;;;5.69;100.00
13732;BME280;6937;56.096;12.664;2023-04-19T05:11:34;103041.00;;;5.72;100.00
13732;BME280;6937;56.096;12.664;2023-04-19T05:14:00;103036.44;;;5.78;100.00
13732;BME280;6937;56.096;12.664;2023-04-19T05:16:26;103043.47;;;5.84;100.00
13732;BME280;6937;56.096;12.664;2023-04-19T05:18:51;103041.59;;;5.91;100.00
13732;BME280;6937;56.096;12.664;2023-04-19T05:21:17;103047.69;;;5.97;100.00
13732;BME280;6937;56.096;12.664;2023-04-19T05:23:42;103051.97;;;6.04;100.00
13732;BME280;6937;56.096;12.664;2023-04-19T05:26:07;103045.72;;;6.08;100.00
13732;BME280;6937;56.096;12.664;2023-04-19T05:28:37;103057.13;;;6.13;100.00
13732;BME280;6937;56.096;12.664;2023-04-19T05:31:02;103058.78;;;6.22;100.00
13732;BME280;6937;56.096;12.664;2023-04-19T05:33:27;103059.47;;;6.30;100.00
13732;BME280;6937;56.096;12.664;2023-04-19T05:35:53;103054.03;;;6.38;100.00
13732;BME280;6937;56.096;12.664;2023-04-19T05:38:18;103057.47;;;6.44;100.00
13732;BME280;6937;56.096;12.664;2023-04-19T05:40:43;103055.59;;;6.49;100.00
13732;BME280;6937;56.096;12.664;2023-04-19T05:43:09;103062.53;;;6.56;100.00
13732;BME280;6937;56.096;12.664;2023-04-19T05:45:34;103062.47;;;6.61;100.00
13732;BME280;6937;56.096;12.664;2023-04-19T05:48:00;103056.19;;;6.65;100.00
13732;BME280;6937;56.096;12.664;2023-04-19T05:50:25;103056.09;;;6.68;100.00
13732;BME280;6937;56.096;12.664;2023-04-19T05:52:51;103058.59;;;6.77;100.00
13732;BME280;6937;56.096;12.664;2023-04-19T05:55:16;103055.84;;;6.82;100.00
13732;BME280;6937;56.096;12.664;2023-04-19T05:57:42;103066.28;;;6.91;100.00
13732;BME280;6937;56.096;12.664;2023-04-19T06:00:08;103067.06;;;6.97;100.00
13732;BME280;6937;56.096;12.664;2023-04-19T06:02:34;103060.78;;;7.00;100.00
13732;BME280;6937;56.096;12.664;2023-04-19T06:04:59;103074.81;;;7.08;100.00
13732;BME280;6937;56.096;12.664;2023-04-19T06:07:28;103075.56;;;7.13;100.00
13732;BME280;6937;56.096;12.664;2023-04-19T06:09:54;103084.16;;;7.25;100.00
13732;BME280;6937;56.096;12.664;2023-04-19T06:12:19;103072.47;;;7.34;100.00
13732;BME280;6937;56.096;12.664;2023-04-19T06:14:45;103067.06;;;7.37;100.00
13732;BME280;6937;56.096;12.664;2023-04-19T06:17:10;103076.59;;;7.47;100.00
13732;BME280;6937;56.096;12.664;2023-04-19T06:19:35;103081.75;;;7.55;100.00
13732;BME280;6937;56.096;12.664;2023-04-19T06:22:01;103083.34;;;7.62;100.00
13732;BME280;6937;56.096;12.664;2023-04-19T06:24:26;103084.94;;;7.70;100.00
13732;BME280;6937;56.096;12.664;2023-04-19T06:26:52;103082.97;;;7.78;100.00
13732;BME280;6937;56.096;12.664;2023-04-19T06:29:17;103086.28;;;7.88;100.00
13732;BME280;6937;56.096;12.664;2023-04-19T06:31:46;103087.88;;;7.95;100.00
13732;BME280;6937;56.096;12.664;2023-04-19T06:34:11;103092.25;;;7.98;100.00
13732;BME280;6937;56.096;12.664;2023-04-19T06:36:36;103097.34;;;8.07;100.00
13732;BME280;6937;56.096;12.664;2023-04-19T06:39:02;103101.66;;;8.12;100.00
13732;BME280;6937;56.096;12.664;2023-04-19T06:41:28;103105.03;;;8.19;100.00
13732;BME280;6937;56.096;12.664;2023-04-19T06:43:53;103107.50;;;8.28;100.00
13732;BME280;6937;56.096;12.664;2023-04-19T06:46:18;103109.19;;;8.32;100.00
13732;BME280;6937;56.096;12.664;2023-04-19T06:48:44;103108.25;;;8.33;100.00
13732;BME280;6937;56.096;12.664;2023-04-19T06:51:09;103112.66;;;8.36;100.00
13732;BME280;6937;56.096;12.664;2023-04-19T06:53:34;103110.72;;;8.41;100.00
13732;BME280;6937;56.096;12.664;2023-04-19T06:56:02;103118.59;;;8.47;100.00
13732;BME280;6937;56.096;12.664;2023-04-19T06:58:31;103121.88;;;8.56;100.00
13732;BME280;6937;56.096;12.664;2023-04-19T07:00:57;103125.25;;;8.63;100.00
13732;BME280;6937;56.096;12.664;2023-04-19T07:03:22;103121.44;;;8.73;100.00
13732;BME280;6937;56.096;12.664;2023-04-19T07:05:48;103122.06;;;8.81;100.00
13732;BME280;6937;56.096;12.664;2023-04-19T07:08:14;103127.13;;;8.92;100.00
13732;BME280;6937;56.096;12.664;2023-04-19T07:10:40;103131.38;;;8.99;100.00
13732;BME280;6937;56.096;12.664;2023-04-19T07:13:07;103123.88;;;9.11;100.00
13732;BME280;6937;56.096;12.664;2023-04-19T07:15:33;103131.63;;;9.22;100.00
13732;BME280;6937;56.096;12.664;2023-04-19T07:17:58;103127.06;;;9.26;100.00
13732;BME280;6937;56.096;12.664;2023-04-19T07:20:23;103126.84;;;9.33;100.00
13732;BME280;6937;56.096;12.664;2023-04-19T07:22:49;103138.22;;;9.38;100.00
13732;BME280;6937;56.096;12.664;2023-04-19T07:25:14;103129.09;;;9.47;100.00
13732;BME280;6937;56.096;12.664;2023-04-19T07:27:39;103142.09;;;9.57;100.00
13732;BME280;6937;56.096;12.664;2023-04-19T07:30:06;103143.53;;;9.69;100.00
13732;BME280;6937;56.096;12.664;2023-04-19T07:32:31;103156.66;;;9.77;100.00
13732;BME280;6937;56.096;12.664;2023-04-19T07:34:56;103148.28;;;9.87;100.00
13732;BME280;6937;56.096;12.664;2023-04-19T07:37:22;103155.19;;;9.94;100.00
13732;BME280;6937;56.096;12.664;2023-04-19T07:39:47;103152.34;;;10.00;100.00
13732;BME280;6937;56.096;12.664;2023-04-19T07:42:12;103159.13;;;10.10;100.00
13732;BME280;6937;56.096;12.664;2023-04-19T07:44:38;103160.50;;;10.24;100.00
13732;BME280;6937;56.096;12.664;2023-04-19T07:47:04;103147.56;;;10.38;100.00
13732;BME280;6937;56.096;12.664;2023-04-19T07:49:30;103162.25;;;10.51;100.00
13732;BME280;6937;56.096;12.664;2023-04-19T07:51:59;103161.88;;;10.61;100.00
13732;BME280;6937;56.096;12.664;2023-04-19T07:54:25;103169.63;;;10.71;100.00
13732;BME280;6937;56.096;12.664;2023-04-19T07:56:51;103173.88;;;10.76;100.00
13732;BME280;6937;56.096;12.664;2023-04-19T07:59:16;103173.56;;;10.85;100.00
13732;BME280;6937;56.096;12.664;2023-04-19T08:01:41;103178.69;;;10.91;100.00
13732;BME280;6937;56.096;12.664;2023-04-19T08:04:07;103185.75;;;10.94;100.00
13732;BME280;6937;56.096;12.664;2023-04-19T08:06:33;103192.91;;;10.93;100.00
13732;BME280;6937;56.096;12.664;2023-04-19T08:08:58;103201.53;;;11.01;100.00
13732;BME280;6937;56.096;12.664;2023-04-19T08:11:24;103210.97;;;11.11;100.00
13732;BME280;6937;56.096;12.664;2023-04-19T08:13:49;103206.00;;;11.26;100.00
13732;BME280;6937;56.096;12.664;2023-04-19T08:16:15;103212.88;;;11.33;100.00
13732;BME280;6937;56.096;12.664;2023-04-19T08:18:40;103212.59;;;11.40;99.28
13732;BME280;6937;56.096;12.664;2023-04-19T08:21:06;103213.94;;;11.52;97.16
13732;BME280;6937;56.096;12.664;2023-04-19T08:23:31;103224.53;;;11.55;91.94
13732;BME280;6937;56.096;12.664;2023-04-19T08:25:57;103227.94;;;11.60;89.53
13732;BME280;6937;56.096;12.664;2023-04-19T08:28:22;103236.56;;;11.68;87.65
13732;BME280;6937;56.096;12.664;2023-04-19T08:30:47;103241.69;;;11.74;85.30
13732;BME280;6937;56.096;12.664;2023-04-19T08:33:13;103242.38;;;11.81;84.71
13732;BME280;6937;56.096;12.664;2023-04-19T08:35:40;103244.69;;;11.90;82.61
13732;BME280;6937;56.096;12.664;2023-04-19T08:38:06;103252.38;;;11.99;80.25
13732;BME280;6937;56.096;12.664;2023-04-19T08:40:32;103250.34;;;12.05;79.27
13732;BME280;6937;56.096;12.664;2023-04-19T08:42:57;103249.78;;;12.19;80.52
13732;BME280;6937;56.096;12.664;2023-04-19T08:45:27;103239.50;;;12.30;77.49
13732;BME280;6937;56.096;12.664;2023-04-19T08:47:53;103233.81;;;12.38;75.67
13732;BME280;6937;56.096;12.664;2023-04-19T08:50:20;103247.22;;;12.38;69.20
13732;BME280;6937;56.096;12.664;2023-04-19T08:52:48;103246.13;;;12.43;68.16
13732;BME280;6937;56.096;12.664;2023-04-19T08:55:14;103236.72;;;12.55;68.16
13732;BME280;6937;56.096;12.664;2023-04-19T08:57:40;103244.56;;;12.59;65.88
13732;BME280;6937;56.096;12.664;2023-04-19T09:00:06;103248.00;;;12.63;63.44
13732;BME280;6937;56.096;12.664;2023-04-19T09:02:48;103247.13;;;12.63;62.23
13732;BME280;6937;56.096;12.664;2023-04-19T09:05:15;103240.16;;;12.79;63.38
13732;BME280;6937;56.096;12.664;2023-04-19T09:07:42;103234.56;;;12.85;61.54
13732;BME280;6937;56.096;12.664;2023-04-19T09:10:09;103238.53;;;12.96;62.45
13732;BME280;6937;56.096;12.664;2023-04-19T09:12:36;103239.44;;;13.17;62.59
13732;BME280;6937;56.096;12.664;2023-04-19T09:15:02;103221.31;;;13.22;59.96
13732;BME280;6937;56.096;12.664;2023-04-19T09:17:32;103213.25;;;13.22;58.70
13732;BME280;6937;56.096;12.664;2023-04-19T09:19:57;103217.06;;;13.37;59.71
13732;BME280;6937;56.096;12.664;2023-04-19T09:22:23;103219.25;;;13.47;58.38
13732;BME280;6937;56.096;12.664;2023-04-19T09:24:50;103201.91;;;13.54;57.42
13732;BME280;6937;56.096;12.664;2023-04-19T09:27:24;103194.59;;;13.58;55.22
13732;BME280;6937;56.096;12.664;2023-04-19T09:29:58;103182.38;;;13.51;53.88
13732;BME280;6937;56.096;12.664;2023-04-19T09:32:24;103193.31;;;13.46;53.51
13732;BME280;6937;56.096;12.664;2023-04-19T09:34:55;103184.19;;;13.50;53.54
13732;BME280;6937;56.096;12.664;2023-04-19T09:37:21;103178.66;;;13.53;53.32
13732;BME280;6937;56.096;12.664;2023-04-19T09:39:47;103176.97;;;13.71;54.13
13732;BME280;6937;56.096;12.664;2023-04-19T09:42:12;103176.81;;;13.74;53.15
13732;BME280;6937;56.096;12.664;2023-04-19T09:44:38;103171.13;;;13.80;53.66
13732;BME280;6937;56.096;12.664;2023-04-19T09:47:20;103166.09;;;13.91;51.89
13732;BME280;6937;56.096;12.664;2023-04-19T09:49:47;103165.75;;;13.99;52.37
13732;BME280;6937;56.096;12.664;2023-04-19T09:52:13;103162.31;;;14.14;52.69
13732;BME280;6937;56.096;12.664;2023-04-19T09:54:40;103160.59;;;14.13;51.34
13732;BME280;6937;56.096;12.664;2023-04-19T09:57:07;103164.13;;;14.14;51.55
13732;BME280;6937;56.096;12.664;2023-04-19T09:59:32;103156.06;;;14.14;51.18
13732;BME280;6937;56.096;12.664;2023-04-19T10:01:58;103147.75;;;14.18;50.83
13732;BME280;6937;56.096;12.664;2023-04-19T10:04:25;103144.50;;;14.12;49.29
13732;BME280;6937;56.096;12.664;2023-04-19T10:06:53;103135.56;;;14.11;49.93
13732;BME280;6937;56.096;12.664;2023-04-19T10:09:20;103136.72;;;14.24;50.53
13732;BME280;6937;56.096;12.664;2023-04-19T10:11:52;103131.06;;;14.29;49.10
13732;BME280;6937;56.096;12.664;2023-04-19T10:14:23;103118.59;;;14.28;49.45
13732;BME280;6937;56.096;12.664;2023-04-19T10:16:52;103130.25;;;14.28;48.72
13732;BME280;6937;56.096;12.664;2023-04-19T10:19:19;103109.44;;;14.32;48.64
13732;BME280;6937;56.096;12.664;2023-04-19T10:21:46;103096.16;;;14.46;49.87
13732;BME280;6937;56.096;12.664;2023-04-19T10:24:14;103105.16;;;14.62;50.44
13732;BME280;6937;56.096;12.664;2023-04-19T10:27:11;103100.72;;;14.78;48.66
13732;BME280;6937;56.096;12.664;2023-04-19T10:32:20;103090.38;;;14.71;49.16
13732;BME280;6937;56.096;12.664;2023-04-19T10:34:46;103080.88;;;14.81;49.56
13732;BME280;6937;56.096;12.664;2023-04-19T10:37:15;103062.22;;;14.93;48.85
13732;BME280;6937;56.096;12.664;2023-04-19T10:39:44;103071.88;;;14.97;47.76
13732;BME280;6937;56.096;12.664;2023-04-19T10:42:09;103069.34;;;14.94;48.10
13732;BME280;6937;56.096;12.664;2023-04-19T10:44:35;103068.59;;;15.08;48.05
13732;BME280;6937;56.096;12.664;2023-04-19T10:47:01;103051.41;;;15.11;47.84
13732;BME280;6937;56.096;12.664;2023-04-19T10:49:29;103036.78;;;15.15;47.13
13732;BME280;6937;56.096;12.664;2023-04-19T10:51:55;103040.28;;;15.17;46.74
13732;BME280;6937;56.096;12.664;2023-04-19T10:54:37;103021.78;;;15.11;44.58
13732;BME280;6937;56.096;12.664;2023-04-19T10:59:33;103025.50;;;15.24;45.53
13732;BME280;6937;56.096;12.664;2023-04-19T11:02:01;103014.66;;;15.25;44.58
13732;BME280;6937;56.096;12.664;2023-04-19T11:06:57;102996.75;;;15.24;43.95
13732;BME280;6937;56.096;12.664;2023-04-19T11:09:33;102993.63;;;15.32;43.64
13732;BME280;6937;56.096;12.664;2023-04-19T11:12:05;102992.81;;;15.45;43.93
13732;BME280;6937;56.096;12.664;2023-04-19T11:14:36;102980.56;;;15.71;44.17
13732;BME280;6937;56.096;12.664;2023-04-19T11:17:22;102968.00;;;15.86;43.26
13732;BME280;6937;56.096;12.664;2023-04-19T11:19:58;102985.44;;;15.80;43.34
13732;BME280;6937;56.096;12.664;2023-04-19T11:22:34;102988.81;;;15.84;42.56
13732;BME280;6937;56.096;12.664;2023-04-19T11:25:11;102977.59;;;15.76;42.87
13732;BME280;6937;56.096;12.664;2023-04-19T11:27:38;102977.34;;;15.80;42.60
13732;BME280;6937;56.096;12.664;2023-04-19T11:30:12;102971.09;;;15.94;43.23
13732;BME280;6937;56.096;12.664;2023-04-19T11:32:48;102966.47;;;16.12;42.40
13732;BME280;6937;56.096;12.664;2023-04-19T11:35:18;102964.69;;;15.97;41.35
13732;BME280;6937;56.096;12.664;2023-04-19T11:37:44;102946.38;;;16.02;42.17
13732;BME280;6937;56.096;12.664;2023-04-19T11:40:13;102952.28;;;16.08;42.13
13732;BME280;6937;56.096;12.664;2023-04-19T11:42:40;102953.81;;;16.12;41.41
13732;BME280;6937;56.096;12.664;2023-04-19T11:45:05;102941.75;;;16.04;41.65
13732;BME280;6937;56.096;12.664;2023-04-19T11:47:31;102939.97;;;16.18;41.70
13732;BME280;6937;56.096;12.664;2023-04-19T11:52:54;102937.75;;;16.39;41.03
13732;BME280;6937;56.096;12.664;2023-04-19T11:55:20;102933.13;;;16.55;42.10
13732;BME280;6937;56.096;12.664;2023-04-19T11:57:46;102927.88;;;16.68;40.97
13732;BME280;6937;56.096;12.664;2023-04-19T12:00:13;102929.56;;;16.55;40.85
13732;BME280;6937;56.096;12.664;2023-04-19T12:02:43;102922.09;;;16.60;40.84
13732;BME280;6937;56.096;12.664;2023-04-19T12:05:12;102913.66;;;16.50;40.26
13732;BME280;6937;56.096;12.664;2023-04-19T12:10:24;102906.63;;;16.48;39.97
13732;BME280;6937;56.096;12.664;2023-04-19T12:12:50;102909.72;;;16.56;39.94
13732;BME280;6937;56.096;12.664;2023-04-19T12:15:15;102912.72;;;16.79;40.28
13732;BME280;6937;56.096;12.664;2023-04-19T12:18:01;102912.47;;;16.97;39.97
13732;BME280;6937;56.096;12.664;2023-04-19T12:20:36;102902.38;;;17.27;40.16
13732;BME280;6937;56.096;12.664;2023-04-19T12:23:03;102903.91;;;17.31;39.47
13732;BME280;6937;56.096;12.664;2023-04-19T12:25:29;102900.03;;;17.35;39.60
13732;BME280;6937;56.096;12.664;2023-04-19T12:27:56;102888.69;;;17.43;39.59
13732;BME280;6937;56.096;12.664;2023-04-19T12:30:21;102884.53;;;17.37;38.81
13732;BME280;6937;56.096;12.664;2023-04-19T12:32:46;102878.59;;;17.32;38.30
13732;BME280;6937;56.096;12.664;2023-04-19T12:35:12;102868.31;;;17.37;38.23
13732;BME280;6937;56.096;12.664;2023-04-19T12:37:37;102868.44;;;17.35;38.06
13732;BME280;6937;56.096;12.664;2023-04-19T12:40:03;102864.31;;;17.57;38.75
13732;BME280;6937;56.096;12.664;2023-04-19T12:42:29;102864.44;;;17.68;37.97
13732;BME280;6937;56.096;12.664;2023-04-19T12:44:54;102866.06;;;17.70;37.97
13732;BME280;6937;56.096;12.664;2023-04-19T12:47:20;102853.84;;;17.77;38.34
13732;BME280;6937;56.096;12.664;2023-04-19T12:49:46;102844.34;;;17.97;39.09
13732;BME280;6937;56.096;12.664;2023-04-19T12:52:11;102855.69;;;18.15;38.71
13732;BME280;6937;56.096;12.664;2023-04-19T12:54:36;102843.69;;;18.06;37.46
13732;BME280;6937;56.096;12.664;2023-04-19T12:57:02;102836.00;;;17.88;36.78
13732;BME280;6937;56.096;12.664;2023-04-19T12:59:27;102836.00;;;17.75;35.81